sensor_id;sensor_type;location;lat;lon;timestamp;P1;durP1;ratioP1;P2;durP2;ratioP2
6821;SDS011;3449;48.728;8.968;2023-05-10T00:00:39;0.70;;;0.40;;
6821;SDS011;3449;48.728;8.968;2023-05-10T00:03:07;0.50;;;0.40;;
6821;SDS011;3449;48.728;8.968;2023-05-10T00:05:34;0.40;;;0.30;;
6821;SDS011;3449;48.728;8.968;2023-05-10T00:08:02;1.17;;;0.50;;
6821;SDS011;3449;48.728;8.968;2023-05-10T00:10:29;0.40;;;0.30;;
6821;SDS011;3449;48.728;8.968;2023-05-10T00:12:56;0.40;;;0.30;;
6821;SDS011;3449;48.728;8.968;2023-05-10T00:15:23;0.73;;;0.40;;
6821;SDS011;3449;48.728;8.968;2023-05-10T00:17:50;0.50;;;0.30;;
6821;SDS011;3449;48.728;8.968;2023-05-10T00:20:16;0.40;;;0.30;;
6821;SDS011;3449;48.728;8.968;2023-05-10T00:22:43;0.40;;;0.30;;
6821;SDS011;3449;48.728;8.968;2023-05-10T00:25:11;0.40;;;0.30;;
6821;SDS011;3449;48.728;8.968;2023-05-10T00:27:38;0.40;;;0.30;;
6821;SDS011;3449;48.728;8.968;2023-05-10T00:30:06;0.40;;;0.30;;
6821;SDS011;3449;48.728;8.968;2023-05-10T00:32:33;1.43;;;0.30;;
6821;SDS011;3449;48.728;8.968;2023-05-10T00:35:00;4.20;;;0.37;;
6821;SDS011;3449;48.728;8.968;2023-05-10T00:37:27;1.70;;;0.50;;
6821;SDS011;3449;48.728;8.968;2023-05-10T00:39:54;0.40;;;0.40;;
6821;SDS011;3449;48.728;8.968;2023-05-10T00:42:22;0.63;;;0.47;;
6821;SDS011;3449;48.728;8.968;2023-05-10T00:44:49;0.50;;;0.40;;
6821;SDS011;3449;48.728;8.968;2023-05-10T00:47:17;0.40;;;0.30;;
6821;SDS011;3449;48.728;8.968;2023-05-10T00:49:44;0.40;;;0.30;;
6821;SDS011;3449;48.728;8.968;2023-05-10T00:52:12;0.40;;;0.30;;
6821;SDS011;3449;48.728;8.968;2023-05-10T00:54:39;0.77;;;0.30;;
6821;SDS011;3449;48.728;8.968;2023-05-10T00:57:06;3.43;;;0.40;;
6821;SDS011;3449;48.728;8.968;2023-05-10T00:59:35;0.83;;;0.40;;
6821;SDS011;3449;48.728;8.968;2023-05-10T01:02:02;0.40;;;0.30;;
6821;SDS011;3449;48.728;8.968;2023-05-10T01:04:29;5.80;;;0.40;;
6821;SDS011;3449;48.728;8.968;2023-05-10T01:06:56;0.83;;;0.40;;
6821;SDS011;3449;48.728;8.968;2023-05-10T01:09:23;0.40;;;0.30;;
6821;SDS011;3449;48.728;8.968;2023-05-10T01:11:51;0.40;;;0.30;;
6821;SDS011;3449;48.728;8.968;2023-05-10T01:14:19;0.40;;;0.30;;
6821;SDS011;3449;48.728;8.968;2023-05-10T01:16:48;0.40;;;0.30;;
6821;SDS011;3449;48.728;8.968;2023-05-10T01:19:17;0.50;;;0.40;;
6821;SDS011;3449;48.728;8.968;2023-05-10T01:21:49;0.40;;;0.30;;
6821;SDS011;3449;48.728;8.968;2023-05-10T01:24:32;0.70;;;0.37;;
6821;SDS011;3449;48.728;8.968;2023-05-10T01:30:49;1.83;;;0.43;;
6821;SDS011;3449;48.728;8.968;2023-05-10T01:33:30;0.40;;;0.40;;
6821;SDS011;3449;48.728;8.968;2023-05-10T01:36:05;0.40;;;0.40;;
6821;SDS011;3449;48.728;8.968;2023-05-10T01:38:38;0.40;;;0.40;;
6821;SDS011;3449;48.728;8.968;2023-05-10T01:41:13;0.90;;;0.30;;
6821;SDS011;3449;48.728;8.968;2023-05-10T01:43:45;0.40;;;0.30;;
6821;SDS011;3449;48.728;8.968;2023-05-10T01:46:20;0.40;;;0.30;;
6821;SDS011;3449;48.728;8.968;2023-05-10T01:48:54;0.40;;;0.30;;
6821;SDS011;3449;48.728;8.968;2023-05-10T01:51:23;2.43;;;0.50;;
6821;SDS011;3449;48.728;8.968;2023-05-10T01:53:54;1.60;;;0.30;;
6821;SDS011;3449;48.728;8.968;2023-05-10T01:56:26;0.60;;;0.37;;
6821;SDS011;3449;48.728;8.968;2023-05-10T01:58:56;0.40;;;0.30;;
6821;SDS011;3449;48.728;8.968;2023-05-10T02:01:24;0.40;;;0.30;;
6821;SDS011;3449;48.728;8.968;2023-05-10T02:03:54;0.40;;;0.30;;
6821;SDS011;3449;48.728;8.968;2023-05-10T02:06:23;0.40;;;0.30;;
6821;SDS011;3449;48.728;8.968;2023-05-10T02:08:51;0.40;;;0.30;;
6821;SDS011;3449;48.728;8.968;2023-05-10T02:11:20;0.70;;;0.30;;
6821;SDS011;3449;48.728;8.968;2023-05-10T02:13:48;0.50;;;0.40;;
6821;SDS011;3449;48.728;8.968;2023-05-10T02:16:16;0.50;;;0.30;;
6821;SDS011;3449;48.728;8.968;2023-05-10T02:18:44;3.53;;;0.53;;
6821;SDS011;3449;48.728;8.968;2023-05-10T02:21:14;0.53;;;0.53;;
6821;SDS011;3449;48.728;8.968;2023-05-10T02:23:42;0.50;;;0.40;;
6821;SDS011;3449;48.728;8.968;2023-05-10T02:26:11;0.40;;;0.40;;
6821;SDS011;3449;48.728;8.968;2023-05-10T02:28:40;0.50;;;0.50;;
6821;SDS011;3449;48.728;8.968;2023-05-10T02:31:08;0.40;;;0.40;;
6821;SDS011;3449;48.728;8.968;2023-05-10T02:33:36;0.60;;;0.40;;
6821;SDS011;3449;48.728;8.968;2023-05-10T02:36:04;0.50;;;0.40;;
6821;SDS011;3449;48.728;8.968;2023-05-10T02:38:36;0.60;;;0.60;;
6821;SDS011;3449;48.728;8.968;2023-05-10T02:41:03;2.20;;;0.57;;
6821;SDS011;3449;48.728;8.968;2023-05-10T02:43:33;0.50;;;0.40;;
6821;SDS011;3449;48.728;8.968;2023-05-10T02:46:01;3.13;;;0.60;;
6821;SDS011;3449;48.728;8.968;2023-05-10T02:48:28;0.50;;;0.40;;
6821;SDS011;3449;48.728;8.968;2023-05-10T02:50:56;3.20;;;0.63;;
6821;SDS011;3449;48.728;8.968;2023-05-10T02:53:34;0.60;;;0.60;;
6821;SDS011;3449;48.728;8.968;2023-05-10T02:56:05;0.80;;;0.67;;
6821;SDS011;3449;48.728;8.968;2023-05-10T02:58:39;0.90;;;0.80;;
6821;SDS011;3449;48.728;8.968;2023-05-10T03:01:06;0.50;;;0.50;;
6821;SDS011;3449;48.728;8.968;2023-05-10T03:03:33;0.50;;;0.50;;
6821;SDS011;3449;48.728;8.968;2023-05-10T03:06:00;0.97;;;0.83;;
6821;SDS011;3449;48.728;8.968;2023-05-10T03:08:27;1.80;;;0.80;;
6821;SDS011;3449;48.728;8.968;2023-05-10T03:10:58;2.23;;;0.50;;
6821;SDS011;3449;48.728;8.968;2023-05-10T03:13:44;0.80;;;0.63;;
6821;SDS011;3449;48.728;8.968;2023-05-10T03:16:22;0.80;;;0.80;;
6821;SDS011;3449;48.728;8.968;2023-05-10T03:18:54;0.80;;;0.70;;
6821;SDS011;3449;48.728;8.968;2023-05-10T03:21:28;0.97;;;0.73;;
6821;SDS011;3449;48.728;8.968;2023-05-10T03:23:58;3.00;;;0.90;;
6821;SDS011;3449;48.728;8.968;2023-05-10T03:26:30;0.83;;;0.83;;
6821;SDS011;3449;48.728;8.968;2023-05-10T03:28:59;1.10;;;0.80;;
6821;SDS011;3449;48.728;8.968;2023-05-10T03:31:27;0.80;;;0.73;;
6821;SDS011;3449;48.728;8.968;2023-05-10T03:33:54;1.13;;;1.03;;
6821;SDS011;3449;48.728;8.968;2023-05-10T03:36:21;1.80;;;1.00;;
6821;SDS011;3449;48.728;8.968;2023-05-10T03:38:48;0.80;;;0.80;;
6821;SDS011;3449;48.728;8.968;2023-05-10T03:41:15;2.30;;;1.10;;
6821;SDS011;3449;48.728;8.968;2023-05-10T03:43:43;8.43;;;0.90;;
6821;SDS011;3449;48.728;8.968;2023-05-10T03:46:10;1.07;;;1.07;;
6821;SDS011;3449;48.728;8.968;2023-05-10T03:48:37;0.70;;;0.70;;
6821;SDS011;3449;48.728;8.968;2023-05-10T03:51:04;0.90;;;0.90;;
6821;SDS011;3449;48.728;8.968;2023-05-10T03:53:31;1.17;;;1.07;;
6821;SDS011;3449;48.728;8.968;2023-05-10T03:55:58;0.90;;;0.90;;
6821;SDS011;3449;48.728;8.968;2023-05-10T03:58:25;0.90;;;0.90;;
6821;SDS011;3449;48.728;8.968;2023-05-10T04:00:53;0.73;;;0.73;;
6821;SDS011;3449;48.728;8.968;2023-05-10T04:03:20;0.93;;;0.93;;
6821;SDS011;3449;48.728;8.968;2023-05-10T04:05:48;2.77;;;1.07;;
6821;SDS011;3449;48.728;8.968;2023-05-10T04:08:15;0.80;;;0.80;;
6821;SDS011;3449;48.728;8.968;2023-05-10T04:10:42;0.77;;;0.70;;
6821;SDS011;3449;48.728;8.968;2023-05-10T04:13:08;1.03;;;1.03;;
6821;SDS011;3449;48.728;8.968;2023-05-10T04:15:36;2.50;;;0.77;;
6821;SDS011;3449;48.728;8.968;2023-05-10T04:18:04;4.20;;;1.10;;
6821;SDS011;3449;48.728;8.968;2023-05-10T04:20:31;0.57;;;0.57;;
6821;SDS011;3449;48.728;8.968;2023-05-10T04:22:59;1.63;;;0.87;;
6821;SDS011;3449;48.728;8.968;2023-05-10T04:25:25;3.00;;;0.90;;
6821;SDS011;3449;48.728;8.968;2023-05-10T04:27:52;0.80;;;0.80;;
6821;SDS011;3449;48.728;8.968;2023-05-10T04:30:19;2.70;;;0.80;;
6821;SDS011;3449;48.728;8.968;2023-05-10T04:32:46;1.00;;;1.00;;
6821;SDS011;3449;48.728;8.968;2023-05-10T04:35:14;2.20;;;0.70;;
6821;SDS011;3449;48.728;8.968;2023-05-10T04:37:41;3.43;;;1.03;;
6821;SDS011;3449;48.728;8.968;2023-05-10T04:40:09;0.97;;;0.97;;
6821;SDS011;3449;48.728;8.968;2023-05-10T04:42:36;0.80;;;0.80;;
6821;SDS011;3449;48.728;8.968;2023-05-10T04:45:06;0.77;;;0.77;;
6821;SDS011;3449;48.728;8.968;2023-05-10T04:47:34;1.40;;;1.30;;
6821;SDS011;3449;48.728;8.968;2023-05-10T04:50:02;1.70;;;1.60;;
6821;SDS011;3449;48.728;8.968;2023-05-10T04:52:30;1.20;;;1.10;;
6821;SDS011;3449;48.728;8.968;2023-05-10T04:54:57;1.17;;;1.00;;
6821;SDS011;3449;48.728;8.968;2023-05-10T04:57:24;0.97;;;0.77;;
6821;SDS011;3449;48.728;8.968;2023-05-10T04:59:51;0.70;;;0.70;;
6821;SDS011;3449;48.728;8.968;2023-05-10T05:02:18;1.10;;;0.80;;
6821;SDS011;3449;48.728;8.968;2023-05-10T05:04:45;1.43;;;1.33;;
6821;SDS011;3449;48.728;8.968;2023-05-10T05:07:12;1.53;;;1.43;;
6821;SDS011;3449;48.728;8.968;2023-05-10T05:09:40;0.93;;;0.93;;
6821;SDS011;3449;48.728;8.968;2023-05-10T05:12:07;4.97;;;1.10;;
6821;SDS011;3449;48.728;8.968;2023-05-10T05:14:38;1.67;;;1.00;;
6821;SDS011;3449;48.728;8.968;2023-05-10T05:17:06;2.00;;;1.10;;
6821;SDS011;3449;48.728;8.968;2023-05-10T05:19:33;1.10;;;1.00;;
6821;SDS011;3449;48.728;8.968;2023-05-10T05:22:00;1.70;;;0.93;;
6821;SDS011;3449;48.728;8.968;2023-05-10T05:24:27;0.80;;;0.80;;
6821;SDS011;3449;48.728;8.968;2023-05-10T05:26:56;0.70;;;0.70;;
6821;SDS011;3449;48.728;8.968;2023-05-10T05:29:22;0.93;;;0.93;;
6821;SDS011;3449;48.728;8.968;2023-05-10T05:31:49;0.80;;;0.80;;
6821;SDS011;3449;48.728;8.968;2023-05-10T05:34:16;7.33;;;1.00;;
6821;SDS011;3449;48.728;8.968;2023-05-10T05:36:45;0.97;;;0.97;;
6821;SDS011;3449;48.728;8.968;2023-05-10T05:39:12;1.23;;;0.93;;
6821;SDS011;3449;48.728;8.968;2023-05-10T05:41:39;1.10;;;1.00;;
6821;SDS011;3449;48.728;8.968;2023-05-10T05:44:07;0.90;;;0.90;;
6821;SDS011;3449;48.728;8.968;2023-05-10T05:46:34;1.17;;;1.00;;
6821;SDS011;3449;48.728;8.968;2023-05-10T05:49:01;2.20;;;1.10;;
6821;SDS011;3449;48.728;8.968;2023-05-10T05:51:28;0.70;;;0.70;;
6821;SDS011;3449;48.728;8.968;2023-05-10T05:53:55;7.70;;;0.83;;
6821;SDS011;3449;48.728;8.968;2023-05-10T05:56:21;1.50;;;0.90;;
6821;SDS011;3449;48.728;8.968;2023-05-10T05:58:49;1.90;;;1.00;;
6821;SDS011;3449;48.728;8.968;2023-05-10T06:01:17;1.33;;;1.10;;
6821;SDS011;3449;48.728;8.968;2023-05-10T06:03:44;0.90;;;0.90;;
6821;SDS011;3449;48.728;8.968;2023-05-10T06:06:11;1.33;;;1.23;;
6821;SDS011;3449;48.728;8.968;2023-05-10T06:08:38;1.27;;;1.17;;
6821;SDS011;3449;48.728;8.968;2023-05-10T06:11:05;1.07;;;0.97;;
6821;SDS011;3449;48.728;8.968;2023-05-10T06:13:32;2.03;;;1.40;;
6821;SDS011;3449;48.728;8.968;2023-05-10T06:16:00;6.80;;;1.93;;
6821;SDS011;3449;48.728;8.968;2023-05-10T06:18:28;9.20;;;2.03;;
6821;SDS011;3449;48.728;8.968;2023-05-10T06:20:55;2.20;;;1.70;;
6821;SDS011;3449;48.728;8.968;2023-05-10T06:23:22;5.50;;;1.53;;
6821;SDS011;3449;48.728;8.968;2023-05-10T06:25:50;1.30;;;1.07;;
6821;SDS011;3449;48.728;8.968;2023-05-10T06:28:17;1.20;;;0.90;;
6821;SDS011;3449;48.728;8.968;2023-05-10T06:30:44;1.10;;;1.00;;
6821;SDS011;3449;48.728;8.968;2023-05-10T06:33:11;1.20;;;1.10;;
6821;SDS011;3449;48.728;8.968;2023-05-10T06:35:39;1.27;;;1.10;;
6821;SDS011;3449;48.728;8.968;2023-05-10T06:38:06;1.10;;;1.00;;
6821;SDS011;3449;48.728;8.968;2023-05-10T06:40:33;3.77;;;1.83;;
6821;SDS011;3449;48.728;8.968;2023-05-10T06:43:01;5.70;;;1.70;;
6821;SDS011;3449;48.728;8.968;2023-05-10T06:45:27;2.17;;;1.70;;
6821;SDS011;3449;48.728;8.968;2023-05-10T06:47:54;3.10;;;1.60;;
6821;SDS011;3449;48.728;8.968;2023-05-10T06:50:21;1.27;;;1.20;;
6821;SDS011;3449;48.728;8.968;2023-05-10T06:52:49;1.37;;;1.00;;
6821;SDS011;3449;48.728;8.968;2023-05-10T06:55:16;1.03;;;0.93;;
6821;SDS011;3449;48.728;8.968;2023-05-10T06:57:43;1.60;;;1.10;;
6821;SDS011;3449;48.728;8.968;2023-05-10T07:00:10;1.63;;;1.10;;
6821;SDS011;3449;48.728;8.968;2023-05-10T07:02:38;1.43;;;1.33;;
6821;SDS011;3449;48.728;8.968;2023-05-10T07:05:05;1.13;;;0.90;;
6821;SDS011;3449;48.728;8.968;2023-05-10T07:07:32;1.57;;;1.47;;
6821;SDS011;3449;48.728;8.968;2023-05-10T07:10:00;2.80;;;1.00;;
6821;SDS011;3449;48.728;8.968;2023-05-10T07:12:27;1.37;;;0.83;;
6821;SDS011;3449;48.728;8.968;2023-05-10T07:14:54;0.87;;;0.87;;
6821;SDS011;3449;48.728;8.968;2023-05-10T07:17:21;1.20;;;1.10;;
6821;SDS011;3449;48.728;8.968;2023-05-10T07:19:48;1.00;;;0.90;;
6821;SDS011;3449;48.728;8.968;2023-05-10T07:22:15;1.07;;;1.07;;
6821;SDS011;3449;48.728;8.968;2023-05-10T07:24:42;1.70;;;1.33;;
6821;SDS011;3449;48.728;8.968;2023-05-10T07:27:11;2.10;;;0.70;;
6821;SDS011;3449;48.728;8.968;2023-05-10T07:29:38;0.50;;;0.50;;
6821;SDS011;3449;48.728;8.968;2023-05-10T07:32:05;0.70;;;0.70;;
6821;SDS011;3449;48.728;8.968;2023-05-10T07:34:32;0.83;;;0.80;;
6821;SDS011;3449;48.728;8.968;2023-05-10T07:36:59;0.80;;;0.67;;
6821;SDS011;3449;48.728;8.968;2023-05-10T07:39:26;1.47;;;1.00;;
6821;SDS011;3449;48.728;8.968;2023-05-10T07:41:53;1.73;;;0.70;;
6821;SDS011;3449;48.728;8.968;2023-05-10T07:44:22;0.50;;;0.50;;
6821;SDS011;3449;48.728;8.968;2023-05-10T07:46:49;1.13;;;0.80;;
6821;SDS011;3449;48.728;8.968;2023-05-10T07:49:16;2.30;;;0.77;;
6821;SDS011;3449;48.728;8.968;2023-05-10T07:51:43;0.70;;;0.70;;
6821;SDS011;3449;48.728;8.968;2023-05-10T07:54:10;0.60;;;0.60;;
6821;SDS011;3449;48.728;8.968;2023-05-10T07:56:37;0.60;;;0.60;;
6821;SDS011;3449;48.728;8.968;2023-05-10T07:59:05;0.60;;;0.60;;
6821;SDS011;3449;48.728;8.968;2023-05-10T08:01:34;0.87;;;0.70;;
6821;SDS011;3449;48.728;8.968;2023-05-10T08:04:01;0.60;;;0.60;;
6821;SDS011;3449;48.728;8.968;2023-05-10T08:06:28;2.23;;;0.90;;
6821;SDS011;3449;48.728;8.968;2023-05-10T08:08:55;0.47;;;0.47;;
6821;SDS011;3449;48.728;8.968;2023-05-10T08:11:22;0.50;;;0.50;;
6821;SDS011;3449;48.728;8.968;2023-05-10T08:13:49;1.83;;;0.60;;
6821;SDS011;3449;48.728;8.968;2023-05-10T08:16:17;1.33;;;0.50;;
6821;SDS011;3449;48.728;8.968;2023-05-10T08:18:45;0.70;;;0.47;;
6821;SDS011;3449;48.728;8.968;2023-05-10T08:21:14;1.00;;;0.67;;
6821;SDS011;3449;48.728;8.968;2023-05-10T08:23:41;0.67;;;0.50;;
6821;SDS011;3449;48.728;8.968;2023-05-10T08:26:09;0.83;;;0.60;;
6821;SDS011;3449;48.728;8.968;2023-05-10T08:28:35;1.00;;;0.50;;
6821;SDS011;3449;48.728;8.968;2023-05-10T08:31:03;1.00;;;0.60;;
6821;SDS011;3449;48.728;8.968;2023-05-10T08:33:30;1.90;;;0.70;;
6821;SDS011;3449;48.728;8.968;2023-05-10T08:35:59;0.87;;;0.57;;
6821;SDS011;3449;48.728;8.968;2023-05-10T08:38:25;0.90;;;0.47;;
6821;SDS011;3449;48.728;8.968;2023-05-10T08:40:53;0.50;;;0.50;;
6821;SDS011;3449;48.728;8.968;2023-05-10T08:43:23;0.83;;;0.53;;
6821;SDS011;3449;48.728;8.968;2023-05-10T08:45:54;1.23;;;0.60;;
6821;SDS011;3449;48.728;8.968;2023-05-10T08:48:21;0.50;;;0.40;;
6821;SDS011;3449;48.728;8.968;2023-05-10T08:50:49;1.50;;;0.40;;
6821;SDS011;3449;48.728;8.968;2023-05-10T08:53:20;0.50;;;0.50;;
6821;SDS011;3449;48.728;8.968;2023-05-10T08:55:50;1.13;;;0.40;;
6821;SDS011;3449;48.728;8.968;2023-05-10T08:58:17;0.57;;;0.47;;
6821;SDS011;3449;48.728;8.968;2023-05-10T09:00:45;0.50;;;0.40;;
6821;SDS011;3449;48.728;8.968;2023-05-10T09:03:13;0.83;;;0.70;;
6821;SDS011;3449;48.728;8.968;2023-05-10T09:05:40;0.80;;;0.80;;
6821;SDS011;3449;48.728;8.968;2023-05-10T09:08:07;0.60;;;0.40;;
6821;SDS011;3449;48.728;8.968;2023-05-10T09:10:37;0.57;;;0.57;;
6821;SDS011;3449;48.728;8.968;2023-05-10T09:13:05;16.43;;;2.13;;
6821;SDS011;3449;48.728;8.968;2023-05-10T09:15:33;1.17;;;0.60;;
6821;SDS011;3449;48.728;8.968;2023-05-10T09:18:00;1.23;;;1.00;;
6821;SDS011;3449;48.728;8.968;2023-05-10T09:20:28;0.80;;;0.63;;
6821;SDS011;3449;48.728;8.968;2023-05-10T09:22:56;0.80;;;0.77;;
6821;SDS011;3449;48.728;8.968;2023-05-10T09:25:22;0.70;;;0.40;;
6821;SDS011;3449;48.728;8.968;2023-05-10T09:27:51;0.53;;;0.50;;
6821;SDS011;3449;48.728;8.968;2023-05-10T09:30:23;1.60;;;0.70;;
6821;SDS011;3449;48.728;8.968;2023-05-10T09:32:52;0.97;;;0.60;;
6821;SDS011;3449;48.728;8.968;2023-05-10T09:35:20;0.50;;;0.40;;
6821;SDS011;3449;48.728;8.968;2023-05-10T09:37:49;2.33;;;0.50;;
6821;SDS011;3449;48.728;8.968;2023-05-10T09:40:18;0.47;;;0.43;;
6821;SDS011;3449;48.728;8.968;2023-05-10T09:42:52;0.60;;;0.50;;
6821;SDS011;3449;48.728;8.968;2023-05-10T09:45:20;2.20;;;0.33;;
6821;SDS011;3449;48.728;8.968;2023-05-10T09:47:48;1.27;;;0.30;;
6821;SDS011;3449;48.728;8.968;2023-05-10T09:50:15;0.57;;;0.40;;
6821;SDS011;3449;48.728;8.968;2023-05-10T09:52:48;0.80;;;0.53;;
6821;SDS011;3449;48.728;8.968;2023-05-10T09:55:17;0.50;;;0.40;;
6821;SDS011;3449;48.728;8.968;2023-05-10T09:57:45;0.60;;;0.40;;
6821;SDS011;3449;48.728;8.968;2023-05-10T10:00:17;1.67;;;0.50;;
6821;SDS011;3449;48.728;8.968;2023-05-10T10:02:45;0.40;;;0.40;;
6821;SDS011;3449;48.728;8.968;2023-05-10T10:05:14;0.70;;;0.70;;
6821;SDS011;3449;48.728;8.968;2023-05-10T10:07:41;0.50;;;0.50;;
6821;SDS011;3449;48.728;8.968;2023-05-10T10:10:09;1.00;;;0.50;;
6821;SDS011;3449;48.728;8.968;2023-05-10T10:12:40;1.07;;;0.60;;
6821;SDS011;3449;48.728;8.968;2023-05-10T10:15:08;0.50;;;0.40;;
6821;SDS011;3449;48.728;8.968;2023-05-10T10:17:36;0.50;;;0.40;;
6821;SDS011;3449;48.728;8.968;2023-05-10T10:20:05;3.33;;;0.60;;
6821;SDS011;3449;48.728;8.968;2023-05-10T10:22:33;1.50;;;0.50;;
6821;SDS011;3449;48.728;8.968;2023-05-10T10:25:00;0.43;;;0.37;;
6821;SDS011;3449;48.728;8.968;2023-05-10T10:30:16;1.53;;;0.60;;
6821;SDS011;3449;48.728;8.968;2023-05-10T10:33:13;0.60;;;0.53;;
6821;SDS011;3449;48.728;8.968;2023-05-10T10:36:00;0.40;;;0.33;;
6821;SDS011;3449;48.728;8.968;2023-05-10T10:38:35;5.10;;;0.60;;
6821;SDS011;3449;48.728;8.968;2023-05-10T10:41:08;2.30;;;0.60;;
6821;SDS011;3449;48.728;8.968;2023-05-10T10:43:36;1.87;;;0.70;;
6821;SDS011;3449;48.728;8.968;2023-05-10T10:46:10;0.60;;;0.50;;
6821;SDS011;3449;48.728;8.968;2023-05-10T10:48:40;1.00;;;0.50;;
6821;SDS011;3449;48.728;8.968;2023-05-10T10:51:08;1.17;;;0.37;;
6821;SDS011;3449;48.728;8.968;2023-05-10T10:53:36;1.67;;;0.50;;
6821;SDS011;3449;48.728;8.968;2023-05-10T10:56:07;1.00;;;0.90;;
6821;SDS011;3449;48.728;8.968;2023-05-10T10:58:36;1.07;;;0.97;;
6821;SDS011;3449;48.728;8.968;2023-05-10T11:01:10;1.67;;;0.60;;
6821;SDS011;3449;48.728;8.968;2023-05-10T11:03:40;1.23;;;0.60;;
6821;SDS011;3449;48.728;8.968;2023-05-10T11:06:07;0.67;;;0.57;;
6821;SDS011;3449;48.728;8.968;2023-05-10T11:08:34;0.50;;;0.40;;
6821;SDS011;3449;48.728;8.968;2023-05-10T11:11:09;2.60;;;0.90;;
6821;SDS011;3449;48.728;8.968;2023-05-10T11:13:40;1.53;;;0.50;;
6821;SDS011;3449;48.728;8.968;2023-05-10T11:16:11;0.80;;;0.50;;
6821;SDS011;3449;48.728;8.968;2023-05-10T11:18:41;0.60;;;0.50;;
6821;SDS011;3449;48.728;8.968;2023-05-10T11:21:19;0.57;;;0.57;;
6821;SDS011;3449;48.728;8.968;2023-05-10T11:23:49;0.50;;;0.50;;
6821;SDS011;3449;48.728;8.968;2023-05-10T11:26:17;2.20;;;0.73;;
6821;SDS011;3449;48.728;8.968;2023-05-10T11:28:48;0.50;;;0.50;;
6821;SDS011;3449;48.728;8.968;2023-05-10T11:31:15;0.40;;;0.40;;
6821;SDS011;3449;48.728;8.968;2023-05-10T11:33:45;0.80;;;0.57;;
6821;SDS011;3449;48.728;8.968;2023-05-10T11:36:14;0.80;;;0.60;;
6821;SDS011;3449;48.728;8.968;2023-05-10T11:38:42;3.13;;;0.73;;
6821;SDS011;3449;48.728;8.968;2023-05-10T11:41:09;1.97;;;0.73;;
6821;SDS011;3449;48.728;8.968;2023-05-10T11:43:37;2.20;;;0.60;;
6821;SDS011;3449;48.728;8.968;2023-05-10T11:46:05;0.50;;;0.40;;
6821;SDS011;3449;48.728;8.968;2023-05-10T11:48:33;2.50;;;0.87;;
6821;SDS011;3449;48.728;8.968;2023-05-10T11:51:02;0.80;;;0.63;;
6821;SDS011;3449;48.728;8.968;2023-05-10T11:53:29;1.37;;;0.70;;
6821;SDS011;3449;48.728;8.968;2023-05-10T11:56:02;0.50;;;0.40;;
6821;SDS011;3449;48.728;8.968;2023-05-10T11:58:30;0.70;;;0.60;;
6821;SDS011;3449;48.728;8.968;2023-05-10T12:00:57;1.53;;;0.50;;
6821;SDS011;3449;48.728;8.968;2023-05-10T12:03:24;0.90;;;0.60;;
6821;SDS011;3449;48.728;8.968;2023-05-10T12:05:51;1.37;;;0.67;;
6821;SDS011;3449;48.728;8.968;2023-05-10T12:08:21;1.80;;;0.80;;
6821;SDS011;3449;48.728;8.968;2023-05-10T12:10:49;0.93;;;0.83;;
6821;SDS011;3449;48.728;8.968;2023-05-10T12:13:16;1.40;;;0.87;;
6821;SDS011;3449;48.728;8.968;2023-05-10T12:15:45;1.50;;;0.93;;
6821;SDS011;3449;48.728;8.968;2023-05-10T12:18:13;3.27;;;1.00;;
6821;SDS011;3449;48.728;8.968;2023-05-10T12:20:41;1.00;;;0.90;;
6821;SDS011;3449;48.728;8.968;2023-05-10T12:23:08;2.00;;;0.80;;
6821;SDS011;3449;48.728;8.968;2023-05-10T12:25:37;0.57;;;0.57;;
6821;SDS011;3449;48.728;8.968;2023-05-10T12:28:05;1.77;;;0.63;;
6821;SDS011;3449;48.728;8.968;2023-05-10T12:30:34;0.63;;;0.60;;
6821;SDS011;3449;48.728;8.968;2023-05-10T12:33:02;2.03;;;0.73;;
6821;SDS011;3449;48.728;8.968;2023-05-10T12:35:38;0.77;;;0.77;;
6821;SDS011;3449;48.728;8.968;2023-05-10T12:38:24;0.67;;;0.67;;
6821;SDS011;3449;48.728;8.968;2023-05-10T12:40:55;0.80;;;0.70;;
6821;SDS011;3449;48.728;8.968;2023-05-10T12:43:22;0.83;;;0.50;;
6821;SDS011;3449;48.728;8.968;2023-05-10T12:45:49;0.97;;;0.63;;
6821;SDS011;3449;48.728;8.968;2023-05-10T12:48:16;0.80;;;0.67;;
6821;SDS011;3449;48.728;8.968;2023-05-10T12:50:43;1.70;;;0.80;;
6821;SDS011;3449;48.728;8.968;2023-05-10T12:53:10;0.97;;;0.70;;
6821;SDS011;3449;48.728;8.968;2023-05-10T12:55:38;2.33;;;0.70;;
6821;SDS011;3449;48.728;8.968;2023-05-10T12:58:06;1.63;;;0.60;;
6821;SDS011;3449;48.728;8.968;2023-05-10T13:00:33;1.17;;;0.80;;
6821;SDS011;3449;48.728;8.968;2023-05-10T13:03:00;0.60;;;0.53;;
6821;SDS011;3449;48.728;8.968;2023-05-10T13:05:27;3.70;;;0.50;;
6821;SDS011;3449;48.728;8.968;2023-05-10T13:07:54;1.00;;;0.70;;
6821;SDS011;3449;48.728;8.968;2023-05-10T13:10:21;2.07;;;0.57;;
6821;SDS011;3449;48.728;8.968;2023-05-10T13:12:48;0.80;;;0.77;;
6821;SDS011;3449;48.728;8.968;2023-05-10T13:15:17;1.43;;;0.80;;
6821;SDS011;3449;48.728;8.968;2023-05-10T13:17:43;1.33;;;0.60;;
6821;SDS011;3449;48.728;8.968;2023-05-10T13:20:11;2.23;;;0.67;;
6821;SDS011;3449;48.728;8.968;2023-05-10T13:22:37;5.13;;;1.03;;
6821;SDS011;3449;48.728;8.968;2023-05-10T13:25:05;1.17;;;1.07;;
6821;SDS011;3449;48.728;8.968;2023-05-10T13:27:32;1.13;;;0.50;;
6821;SDS011;3449;48.728;8.968;2023-05-10T13:29:59;3.30;;;0.80;;
6821;SDS011;3449;48.728;8.968;2023-05-10T13:32:27;0.70;;;0.70;;
6821;SDS011;3449;48.728;8.968;2023-05-10T13:34:54;3.83;;;0.80;;
6821;SDS011;3449;48.728;8.968;2023-05-10T13:37:21;4.50;;;0.60;;
6821;SDS011;3449;48.728;8.968;2023-05-10T13:39:48;1.50;;;1.13;;
6821;SDS011;3449;48.728;8.968;2023-05-10T13:42:15;3.40;;;1.13;;
6821;SDS011;3449;48.728;8.968;2023-05-10T13:44:41;1.53;;;0.80;;
6821;SDS011;3449;48.728;8.968;2023-05-10T13:47:08;0.60;;;0.60;;
6821;SDS011;3449;48.728;8.968;2023-05-10T13:49:37;1.87;;;0.87;;
6821;SDS011;3449;48.728;8.968;2023-05-10T13:52:04;0.70;;;0.70;;
6821;SDS011;3449;48.728;8.968;2023-05-10T13:54:32;1.00;;;0.70;;
6821;SDS011;3449;48.728;8.968;2023-05-10T13:56:59;1.73;;;0.70;;
6821;SDS011;3449;48.728;8.968;2023-05-10T13:59:26;1.20;;;0.73;;
6821;SDS011;3449;48.728;8.968;2023-05-10T14:01:52;2.83;;;0.77;;
6821;SDS011;3449;48.728;8.968;2023-05-10T14:04:19;1.80;;;0.67;;
6821;SDS011;3449;48.728;8.968;2023-05-10T14:06:48;1.17;;;0.83;;
6821;SDS011;3449;48.728;8.968;2023-05-10T14:09:15;1.03;;;0.50;;
6821;SDS011;3449;48.728;8.968;2023-05-10T14:11:42;5.57;;;0.63;;
6821;SDS011;3449;48.728;8.968;2023-05-10T14:14:10;3.17;;;1.00;;
6821;SDS011;3449;48.728;8.968;2023-05-10T14:16:37;0.83;;;0.53;;
6821;SDS011;3449;48.728;8.968;2023-05-10T14:19:04;1.47;;;0.60;;
6821;SDS011;3449;48.728;8.968;2023-05-10T14:21:31;0.60;;;0.60;;
6821;SDS011;3449;48.728;8.968;2023-05-10T14:23:59;1.80;;;0.80;;
6821;SDS011;3449;48.728;8.968;2023-05-10T14:26:26;0.80;;;0.53;;
6821;SDS011;3449;48.728;8.968;2023-05-10T14:28:53;2.00;;;0.80;;
6821;SDS011;3449;48.728;8.968;2023-05-10T14:31:20;6.80;;;0.50;;
6821;SDS011;3449;48.728;8.968;2023-05-10T14:33:49;1.37;;;0.67;;
6821;SDS011;3449;48.728;8.968;2023-05-10T14:36:16;1.07;;;0.97;;
6821;SDS011;3449;48.728;8.968;2023-05-10T14:38:44;0.50;;;0.40;;
6821;SDS011;3449;48.728;8.968;2023-05-10T14:41:12;1.00;;;0.70;;
6821;SDS011;3449;48.728;8.968;2023-05-10T14:43:40;2.60;;;0.77;;
6821;SDS011;3449;48.728;8.968;2023-05-10T14:46:07;5.17;;;1.17;;
6821;SDS011;3449;48.728;8.968;2023-05-10T14:48:33;2.03;;;0.70;;
6821;SDS011;3449;48.728;8.968;2023-05-10T14:51:01;2.67;;;1.43;;
6821;SDS011;3449;48.728;8.968;2023-05-10T14:53:28;3.00;;;1.00;;
6821;SDS011;3449;48.728;8.968;2023-05-10T14:55:55;2.73;;;0.87;;
6821;SDS011;3449;48.728;8.968;2023-05-10T14:58:23;4.93;;;0.97;;
6821;SDS011;3449;48.728;8.968;2023-05-10T15:00:50;1.50;;;0.80;;
6821;SDS011;3449;48.728;8.968;2023-05-10T15:03:17;2.53;;;0.80;;
6821;SDS011;3449;48.728;8.968;2023-05-10T15:05:44;1.67;;;0.70;;
6821;SDS011;3449;48.728;8.968;2023-05-10T15:08:11;0.60;;;0.60;;
6821;SDS011;3449;48.728;8.968;2023-05-10T15:10:38;0.50;;;0.47;;
6821;SDS011;3449;48.728;8.968;2023-05-10T15:13:05;1.60;;;0.57;;
6821;SDS011;3449;48.728;8.968;2023-05-10T15:15:33;0.53;;;0.40;;
6821;SDS011;3449;48.728;8.968;2023-05-10T15:18:00;3.97;;;0.90;;
6821;SDS011;3449;48.728;8.968;2023-05-10T15:20:26;2.23;;;0.50;;
6821;SDS011;3449;48.728;8.968;2023-05-10T15:22:53;0.70;;;0.67;;
6821;SDS011;3449;48.728;8.968;2023-05-10T15:25:20;1.00;;;0.60;;
6821;SDS011;3449;48.728;8.968;2023-05-10T15:27:48;2.70;;;1.10;;